»·PEaware :: N8DL KHQM-S23

N8DL :: KHQM-S23

FLIGHT INFORMATION

Flight Status: Arrived
Operator: Privately registered:
United States
More flights under this callsign
Pilot: Dean L. (8400)
Aircraft: GATES LEARJET LEARJET 35/36
(LJ35)
More flights by this aircraft type
Origin: KHQM Bowerman
United States
Destination: S23 Ione Mun
United States
More flights between these airports :: More routes between these airports
Route: + HQM V27 SEA J505 TWISP
File this flight plan on PilotEdge
Remarks:
Altitude:
(Current/Filed)
29,000ft
Speed:
(Current/Filed)
400kts
Departed: 30-Apr-20 02:58 PM
Arrived: 30-Apr-20 03:48 PM
Distance/Time
Traveled:
283nm/0:49
Distance/Time
To Go:
Arrived

Flight Plot

Page will automatically refresh every two minutes.

Flight plan parsing failed; only flown route is shown


Map Options




Map Legend


Flown Route
Filed Route
Departure Airport
Arrival Airport
Navaid (VOR, NDB)
Fix

Horizontal Profiles

Position Reports

Time Latitude Longitude Heading Altitude Ground
Speed
30-Apr-20 14:38 46.973861 -123.928362 168 16ft 0kts
30-Apr-20 14:39 46.973861 -123.928362 168 16ft 0kts
30-Apr-20 14:39 46.973861 -123.928362 168 16ft 0kts
30-Apr-20 14:40 46.973861 -123.928362 168 16ft 0kts
30-Apr-20 14:42 46.973861 -123.928362 168 16ft 0kts
30-Apr-20 14:42 46.973861 -123.928362 168 16ft 0kts
30-Apr-20 14:43 46.973861 -123.928362 168 16ft 0kts
30-Apr-20 14:44 46.973861 -123.928362 168 16ft 0kts
30-Apr-20 14:45 46.973861 -123.928362 168 16ft 0kts
30-Apr-20 14:46 46.973861 -123.928362 168 16ft 0kts
30-Apr-20 14:47 46.973861 -123.928362 168 16ft 0kts
30-Apr-20 14:48 46.973861 -123.928362 168 16ft 0kts
30-Apr-20 14:49 46.973861 -123.928362 168 16ft 0kts
30-Apr-20 14:50 46.973861 -123.928362 168 16ft 0kts
30-Apr-20 14:51 46.973861 -123.928362 168 16ft 0kts
30-Apr-20 14:52 46.973861 -123.928362 168 16ft 0kts
30-Apr-20 14:53 46.973861 -123.928362 168 16ft 0kts
30-Apr-20 14:54 46.973861 -123.928362 168 16ft 0kts
30-Apr-20 14:55 46.973501 -123.928070 130 17ft 4kts
30-Apr-20 14:56 46.972351 -123.927492 261 17ft 15kts
30-Apr-20 14:57 46.961124 -123.994183 244 2082ft 236kts
30-Apr-20 14:58 46.943956 -124.087728 258 6420ft 232kts
30-Apr-20 14:59 46.972056 -124.159360 349 9499ft 256kts
30-Apr-20 15:00 47.031274 -124.106023 74 11811ft 288kts
30-Apr-20 15:01 47.043234 -123.983443 81 16410ft 316kts
30-Apr-20 15:02 47.055815 -123.851968 81 20720ft 336kts
30-Apr-20 15:03 47.069951 -123.712400 76 22984ft 367kts
30-Apr-20 15:04 47.107249 -123.561751 67 24656ft 407kts
30-Apr-20 15:05 47.149253 -123.404992 67 27091ft 419kts
30-Apr-20 15:06 47.192570 -123.242511 67 28875ft 436kts
30-Apr-20 15:07 47.238899 -123.067545 67 29004ft 480kts
30-Apr-20 15:08 47.288323 -122.879246 67 29004ft 500kts
30-Apr-20 15:09 47.335992 -122.696013 67 28992ft 459kts
30-Apr-20 15:10 47.381242 -122.520965 68 28991ft 468kts
30-Apr-20 15:11 47.429291 -122.337371 65 28999ft 487kts
30-Apr-20 15:12 47.493343 -122.158634 59 28999ft 496kts
30-Apr-20 15:13 47.560933 -121.979868 59 29000ft 499kts
30-Apr-20 15:14 47.628508 -121.800536 59 29000ft 500kts
30-Apr-20 15:15 47.694400 -121.624509 59 28989ft 473kts
30-Apr-20 15:16 47.756763 -121.456921 59 28983ft 457kts
30-Apr-20 15:17 47.817769 -121.291996 59 28981ft 455kts
30-Apr-20 15:18 47.878673 -121.126293 59 28982ft 456kts
30-Apr-20 15:19 47.939638 -120.959373 59 28984ft 466kts
30-Apr-20 15:20 48.002513 -120.786023 58 28997ft 465kts
30-Apr-20 15:21 48.061163 -120.617948 60 28384ft 444kts
30-Apr-20 15:22 48.118421 -120.462158 59 28997ft 419kts
30-Apr-20 15:23 48.172991 -120.310300 60 28985ft 431kts
30-Apr-20 15:24 48.231625 -120.144863 59 28999ft 459kts
30-Apr-20 15:25 48.281942 -119.966436 71 29000ft 470kts
30-Apr-20 15:26 48.315267 -119.780293 72 27906ft 440kts
30-Apr-20 15:27 48.345590 -119.608615 71 26697ft 413kts
30-Apr-20 15:28 48.374481 -119.443926 71 25494ft 402kts
30-Apr-20 15:29 48.402610 -119.282015 71 24294ft 399kts
30-Apr-20 15:30 48.429935 -119.123012 71 23991ft 384kts
30-Apr-20 15:31 48.457068 -118.964298 72 22468ft 403kts
30-Apr-20 15:32 48.485297 -118.797089 72 20676ft 414kts
30-Apr-20 15:33 48.512981 -118.630947 72 18874ft 389kts
30-Apr-20 15:34 48.538379 -118.477534 74 17061ft 369kts
30-Apr-20 15:35 48.562619 -118.329954 72 15269ft 355kts
30-Apr-20 15:36 48.585905 -118.187014 72 13468ft 347kts
30-Apr-20 15:37 48.608640 -118.046207 72 11675ft 339kts
30-Apr-20 15:38 48.628216 -117.923110 72 10994ft 267kts
30-Apr-20 15:39 48.643976 -117.824177 71 10999ft 224kts
30-Apr-20 15:40 48.657825 -117.736897 70 10991ft 207kts
30-Apr-20 15:41 48.670236 -117.649598 80 10918ft 211kts
30-Apr-20 15:42 48.664212 -117.560045 112 9453ft 227kts
30-Apr-20 15:43 48.621821 -117.493248 135 8122ft 223kts
30-Apr-20 15:44 48.615218 -117.419303 29 6470ft 164kts
30-Apr-20 15:45 48.657501 -117.391563 1 3326ft 151kts
30-Apr-20 15:46 48.694321 -117.407468 340 2319ft 129kts
30-Apr-20 15:47 48.712907 -117.414657 351 2113ft 14kts
30-Apr-20 15:48 48.713782 -117.414688 5 2113ft 1kts
30-Apr-20 15:49 48.713802 -117.414685 5 2113ft 0kts
30-Apr-20 15:50 48.713806 -117.414684 5 2113ft 0kts
30-Apr-20 15:51 48.713809 -117.414684 5 2113ft 0kts
30-Apr-20 15:52 48.713812 -117.414683 5 2113ft 0kts
30-Apr-20 15:53 48.713815 -117.414683 5 2113ft 0kts
30-Apr-20 15:54 48.713818 -117.414682 5 2113ft 0kts
30-Apr-20 15:55 48.713821 -117.414682 5 2113ft 0kts
30-Apr-20 15:56 48.713824 -117.414681 5 2113ft 0kts
30-Apr-20 15:57 48.713827 -117.414681 5 2113ft 0kts
30-Apr-20 15:58 48.713830 -117.414680 5 2113ft 0kts
30-Apr-20 15:59 48.713833 -117.414680 5 2113ft 0kts
30-Apr-20 16:00 48.713837 -117.414679 5 2113ft 0kts
30-Apr-20 16:01 48.713840 -117.414679 5 2113ft 0kts

Navigation Log

Ident Type
Flight plan parsing failed, navigation log unavailable